Terminal Aerodrome Forecast
Issued by NWS

Home | Current Version | Previous Version | Text Only | Print | Product List | Glossary On
Versions: 1 2 3 4 5 6 7 8 9 10 11 12 13 14
000
FTUS45 KRIW 211700
TAFBPI
TAF
KBPI 211720Z 2118/2218 16007KT P6SM SCT090 BKN150
     FM212100 15008KT P6SM VCTS SCT060CB BKN080
     FM220300 16006KT P6SM -SHRA SCT035 BKN050
     FM221000 VRB06KT P6SM VCSH BKN045=

USA.gov is the U.S. government's official web portal to all federal, state and local government web resources and services.